createdAt,value
2023-07-08T00:02:34.585Z,4.60
2023-07-08T00:05:07.469Z,3.60
2023-07-08T00:10:45.908Z,3.30
2023-07-08T00:13:27.719Z,3.40
2023-07-08T00:16:20.732Z,3.20
2023-07-08T00:18:50.743Z,3.50
2023-07-08T00:21:31.785Z,3.40
2023-07-08T00:24:07.197Z,3.70
2023-07-08T00:26:37.854Z,3.60
2023-07-08T00:29:13.076Z,3.70
2023-07-08T00:31:45.765Z,3.70
2023-07-08T00:34:19.564Z,3.60
2023-07-08T00:37:09.652Z,3.40
2023-07-08T00:39:42.542Z,3.10
2023-07-08T00:42:21.024Z,3.40
2023-07-08T00:44:54.153Z,3.80
2023-07-08T00:47:24.376Z,3.40
2023-07-08T00:50:07.371Z,3.70
2023-07-08T00:52:41.741Z,3.30
2023-07-08T00:55:15.630Z,3.50
2023-07-08T00:57:50.868Z,3.60
2023-07-08T01:00:23.651Z,3.40
2023-07-08T01:02:54.384Z,3.10
2023-07-08T01:05:27.074Z,2.90
2023-07-08T01:07:57.511Z,3.10
2023-07-08T01:10:39.601Z,3.10
2023-07-08T01:13:13.619Z,2.90
2023-07-08T01:15:43.830Z,2.80
2023-07-08T01:18:32.178Z,2.70
2023-07-08T01:21:07.837Z,2.60
2023-07-08T01:23:40.825Z,2.60
2023-07-08T01:26:09.300Z,2.50
2023-07-08T01:28:40.049Z,2.50
2023-07-08T01:33:52.680Z,2.60
2023-07-08T01:36:30.675Z,2.70
2023-07-08T01:38:58.648Z,2.30
2023-07-08T01:41:26.508Z,2.50
2023-07-08T01:43:54.376Z,2.30
2023-07-08T01:46:29.616Z,2.40
2023-07-08T01:49:01.295Z,2.50
2023-07-08T01:51:35.388Z,2.70
2023-07-08T01:54:08.502Z,2.90
2023-07-08T01:56:53.243Z,5.00
2023-07-08T01:59:27.045Z,5.60
2023-07-08T02:01:58.898Z,7.70
2023-07-08T02:04:31.767Z,7.30
2023-07-08T02:07:12.363Z,5.90
2023-07-08T02:09:46.483Z,4.70
2023-07-08T02:12:17.625Z,3.00
2023-07-08T02:14:54.063Z,2.80
2023-07-08T02:17:21.978Z,2.30
2023-07-08T02:19:51.988Z,2.30
2023-07-08T02:22:19.845Z,2.40
2023-07-08T02:24:51.626Z,2.30
2023-07-08T02:27:19.620Z,2.20
2023-07-08T02:29:49.699Z,2.30
2023-07-08T02:32:29.451Z,2.60
2023-07-08T02:35:00.693Z,4.70
2023-07-08T02:37:33.901Z,5.30
2023-07-08T02:40:01.988Z,6.20
2023-07-08T02:42:36.684Z,6.60
2023-07-08T02:45:10.870Z,5.30
2023-07-08T02:50:14.535Z,3.60
2023-07-08T02:52:42.499Z,3.30
2023-07-08T02:55:18.566Z,2.80
2023-07-08T02:57:48.594Z,2.40
2023-07-08T03:00:19.939Z,2.20
2023-07-08T03:02:52.757Z,2.50
2023-07-08T03:05:24.260Z,2.30
2023-07-08T03:07:59.222Z,1.90
2023-07-08T03:10:29.422Z,2.00
2023-07-08T03:12:57.184Z,2.20
2023-07-08T03:15:30.504Z,2.10
2023-07-08T03:18:06.892Z,2.40
2023-07-08T03:20:35.027Z,2.30
2023-07-08T03:23:03.318Z,2.40
2023-07-08T03:25:39.981Z,2.30
2023-07-08T03:28:27.505Z,2.10
2023-07-08T03:31:00.173Z,2.30
2023-07-08T03:33:36.345Z,2.30
2023-07-08T03:36:06.990Z,2.40
2023-07-08T03:38:34.849Z,2.20
2023-07-08T03:41:03.948Z,2.50
2023-07-08T03:43:35.003Z,2.50
2023-07-08T03:46:05.806Z,2.40
2023-07-08T03:48:38.714Z,2.30
2023-07-08T03:51:46.840Z,2.40
2023-07-08T03:54:20.116Z,2.60
2023-07-08T03:56:55.702Z,2.70
2023-07-08T03:59:25.285Z,2.50
2023-07-08T04:01:57.414Z,2.70
2023-07-08T04:04:36.149Z,2.30
2023-07-08T04:07:05.728Z,2.60
2023-07-08T04:09:33.618Z,2.50
2023-07-08T04:12:07.361Z,2.60
2023-07-08T04:14:35.323Z,2.70
2023-07-08T04:17:06.332Z,2.80
2023-07-08T04:19:34.548Z,2.70
2023-07-08T04:22:07.631Z,2.60
2023-07-08T04:24:37.752Z,2.50
2023-07-08T04:27:06.115Z,2.80
2023-07-08T04:29:33.909Z,2.90
2023-07-08T04:32:07.198Z,2.80
2023-07-08T04:34:35.276Z,2.80
2023-07-08T04:37:03.195Z,2.80
2023-07-08T04:39:41.248Z,2.90
2023-07-08T04:42:24.895Z,3.20
2023-07-08T04:44:58.608Z,2.90
2023-07-08T04:47:32.004Z,3.10
2023-07-08T04:49:59.958Z,3.40
2023-07-08T04:52:32.747Z,2.80
2023-07-08T04:55:05.428Z,3.00
2023-07-08T05:00:01.053Z,3.40
2023-07-08T05:02:31.693Z,3.40
2023-07-08T05:05:04.772Z,3.60
2023-07-08T05:07:37.584Z,3.20
2023-07-08T05:10:15.884Z,3.60
2023-07-08T05:12:45.788Z,3.30
2023-07-08T05:15:14.270Z,3.30
2023-07-08T05:17:45.738Z,3.40
2023-07-08T05:20:16.164Z,3.30
2023-07-08T05:22:48.006Z,3.90
2023-07-08T05:25:23.772Z,3.30
2023-07-08T05:27:51.632Z,3.50
2023-07-08T05:30:24.517Z,3.60
2023-07-08T05:32:57.493Z,3.50
2023-07-08T05:35:30.810Z,3.40
2023-07-08T05:38:13.647Z,3.80
2023-07-08T05:40:47.451Z,3.50
2023-07-08T05:43:20.518Z,3.60
2023-07-08T05:46:05.842Z,3.70
2023-07-08T05:48:38.940Z,3.30
2023-07-08T05:51:06.878Z,3.80
2023-07-08T05:53:34.722Z,3.90
2023-07-08T05:56:03.859Z,3.80
2023-07-08T05:58:31.791Z,3.80
2023-07-08T06:01:04.689Z,3.60
2023-07-08T06:03:38.567Z,3.80
2023-07-08T06:06:09.243Z,3.70
2023-07-08T06:08:38.533Z,3.90
2023-07-08T06:11:06.388Z,3.60
2023-07-08T06:13:34.363Z,3.70
2023-07-08T06:16:05.582Z,3.80
2023-07-08T06:18:33.584Z,3.60
2023-07-08T06:21:06.044Z,3.70
2023-07-08T06:23:37.117Z,4.00
2023-07-08T06:26:04.957Z,4.00
2023-07-08T06:28:32.732Z,3.50
2023-07-08T06:31:04.928Z,3.90
2023-07-08T06:33:35.635Z,3.90
2023-07-08T06:36:08.313Z,3.70
2023-07-08T06:38:44.470Z,4.00
2023-07-08T06:41:12.445Z,3.80
2023-07-08T06:43:40.314Z,4.10
2023-07-08T06:46:26.072Z,3.60
2023-07-08T06:48:58.899Z,4.10
2023-07-08T06:51:31.673Z,3.60
2023-07-08T06:54:07.157Z,4.20
2023-07-08T06:56:48.088Z,4.00
2023-07-08T06:59:23.129Z,3.80
2023-07-08T07:01:54.913Z,3.80
2023-07-08T07:04:23.074Z,3.70
2023-07-08T07:06:56.250Z,3.90
2023-07-08T07:09:30.945Z,3.80
2023-07-08T07:11:59.155Z,4.10
2023-07-08T07:17:08.881Z,3.70
2023-07-08T07:19:50.101Z,4.00
2023-07-08T07:22:18.074Z,4.10
2023-07-08T07:24:46.139Z,3.90
2023-07-08T07:27:14.011Z,3.70
2023-07-08T07:30:00.944Z,4.10
2023-07-08T07:32:31.008Z,4.10
2023-07-08T07:35:04.341Z,3.80
2023-07-08T07:37:37.225Z,3.80
2023-07-08T07:40:08.503Z,3.80
2023-07-08T07:42:45.768Z,3.60
2023-07-08T07:45:14.367Z,3.90
2023-07-08T07:47:50.058Z,3.50
2023-07-08T07:50:49.306Z,4.00
2023-07-08T07:53:17.288Z,3.70
2023-07-08T07:55:45.464Z,3.30
2023-07-08T07:58:18.237Z,3.70
2023-07-08T08:00:51.144Z,3.90
2023-07-08T08:03:25.475Z,3.80
2023-07-08T08:05:53.346Z,4.10
2023-07-08T08:08:22.113Z,4.00
2023-07-08T08:10:53.246Z,4.20
2023-07-08T08:13:21.435Z,4.10
2023-07-08T08:15:49.594Z,3.90
2023-07-08T08:18:22.586Z,4.00
2023-07-08T08:20:52.873Z,4.20
2023-07-08T08:23:20.776Z,4.10
2023-07-08T08:25:53.682Z,4.10
2023-07-08T08:28:26.483Z,4.10
2023-07-08T08:30:57.314Z,4.10
2023-07-08T08:33:41.122Z,4.60
2023-07-08T08:36:08.995Z,4.60
2023-07-08T08:38:39.838Z,3.90
2023-07-08T08:41:15.378Z,4.40
2023-07-08T08:43:46.915Z,4.30
2023-07-08T08:46:30.603Z,4.20
2023-07-08T08:49:16.132Z,3.90
2023-07-08T08:51:44.039Z,4.20
2023-07-08T08:54:12.023Z,4.30
2023-07-08T08:56:52.166Z,4.10
2023-07-08T08:59:46.539Z,3.50
2023-07-08T09:02:24.143Z,3.70
2023-07-08T09:04:52.118Z,3.70
2023-07-08T09:07:21.120Z,3.60
2023-07-08T09:09:54.414Z,3.70
2023-07-08T09:12:25.659Z,3.30
2023-07-08T09:14:54.837Z,3.80
2023-07-08T09:17:37.106Z,3.10
2023-07-08T09:20:21.197Z,3.00
2023-07-08T09:23:02.706Z,3.00
2023-07-08T09:25:43.758Z,3.00
2023-07-08T09:28:17.217Z,3.40
2023-07-08T09:30:49.423Z,3.10
2023-07-08T09:33:53.146Z,3.00
2023-07-08T09:36:26.487Z,2.90
2023-07-08T09:38:59.218Z,3.50
2023-07-08T09:41:37.988Z,3.30
2023-07-08T09:44:32.129Z,3.40
2023-07-08T09:47:03.152Z,3.10
2023-07-08T09:49:35.189Z,3.20
2023-07-08T09:52:11.392Z,3.20
2023-07-08T09:54:46.266Z,3.20
2023-07-08T09:57:19.625Z,3.00
2023-07-08T10:00:17.305Z,3.40
2023-07-08T10:02:50.003Z,3.00
2023-07-08T10:05:21.142Z,2.70
2023-07-08T10:07:51.752Z,3.00
2023-07-08T10:10:25.211Z,2.40
2023-07-08T10:13:37.092Z,2.70
2023-07-08T10:16:16.156Z,2.60
2023-07-08T10:18:49.480Z,2.60
2023-07-08T10:21:41.119Z,2.60
2023-07-08T10:24:32.071Z,2.40
2023-07-08T10:27:20.462Z,2.70
2023-07-08T10:30:21.822Z,2.30
2023-07-08T10:33:39.555Z,3.20
2023-07-08T10:36:36.488Z,2.60
2023-07-08T10:39:33.763Z,2.50
2023-07-08T10:42:32.293Z,2.50
2023-07-08T10:45:03.603Z,2.60
2023-07-08T10:47:40.544Z,2.70
2023-07-08T10:50:45.356Z,2.40
2023-07-08T10:53:29.659Z,2.50
2023-07-08T10:56:26.654Z,2.40
2023-07-08T10:59:33.191Z,2.50
2023-07-08T11:02:13.047Z,2.70
2023-07-08T11:04:51.246Z,2.60
2023-07-08T11:07:42.575Z,2.70
2023-07-08T11:10:25.307Z,2.40
2023-07-08T11:13:24.930Z,2.30
2023-07-08T11:16:02.764Z,2.90
2023-07-08T11:18:52.697Z,2.50
2023-07-08T11:21:32.947Z,2.10
2023-07-08T11:24:41.754Z,2.30
2023-07-08T11:27:28.181Z,2.40
2023-07-08T11:30:09.832Z,2.40
2023-07-08T11:32:52.616Z,2.30
2023-07-08T11:35:33.566Z,2.30
2023-07-08T11:38:20.385Z,2.40
2023-07-08T11:41:09.444Z,2.00
2023-07-08T11:44:12.632Z,2.20
2023-07-08T11:49:25.163Z,2.20
2023-07-08T11:52:09.410Z,2.40
2023-07-08T11:54:47.243Z,2.50
2023-07-08T11:57:19.800Z,2.30
2023-07-08T12:00:11.797Z,2.10
2023-07-08T12:02:55.103Z,2.20
2023-07-08T12:05:43.817Z,2.00
2023-07-08T12:08:19.368Z,2.20
2023-07-08T12:10:59.227Z,2.20
2023-07-08T12:13:32.361Z,2.20
2023-07-08T12:16:11.871Z,2.40
2023-07-08T12:18:40.637Z,2.40
2023-07-08T12:21:12.240Z,2.20
2023-07-08T12:23:46.492Z,2.30
2023-07-08T12:26:19.709Z,2.40
2023-07-08T12:29:12.048Z,2.20
2023-07-08T12:31:47.825Z,2.00
2023-07-08T12:34:19.084Z,2.40
2023-07-08T12:36:49.576Z,2.20
2023-07-08T12:39:17.978Z,2.00
2023-07-08T12:41:51.058Z,2.30
2023-07-08T12:44:23.182Z,2.30
2023-07-08T12:46:57.127Z,1.90
2023-07-08T12:49:42.792Z,2.20
2023-07-08T12:52:21.393Z,2.10
2023-07-08T12:54:52.371Z,2.40
2023-07-08T12:57:20.855Z,2.60
2023-07-08T12:59:53.201Z,3.60
2023-07-08T13:02:26.071Z,4.40
2023-07-08T13:05:00.735Z,5.10
2023-07-08T13:07:44.027Z,2.90
2023-07-08T13:10:22.461Z,2.20
2023-07-08T13:12:53.963Z,2.00
2023-07-08T18:51:24.914Z,6.40
2023-07-08T18:53:52.692Z,6.10
2023-07-08T18:56:20.208Z,6.20
2023-07-08T18:58:51.589Z,6.30
2023-07-08T19:01:22.539Z,6.30
2023-07-08T19:03:50.190Z,6.20
2023-07-08T19:06:18.176Z,5.70
2023-07-08T19:08:48.593Z,5.90
2023-07-08T19:11:21.476Z,6.20
2023-07-08T19:13:49.695Z,5.90
2023-07-08T19:16:18.910Z,5.90
2023-07-08T19:18:51.360Z,6.10
2023-07-08T19:23:57.114Z,6.50
2023-07-08T19:26:25.319Z,6.30
2023-07-08T19:28:54.063Z,6.00
2023-07-08T19:31:33.440Z,6.70
2023-07-08T19:34:03.938Z,8.00
2023-07-08T19:36:37.443Z,9.10
2023-07-08T19:39:13.339Z,10.50
2023-07-08T19:41:41.183Z,13.00
2023-07-08T19:44:09.967Z,11.60
2023-07-08T19:47:04.096Z,13.20
2023-07-08T19:49:38.665Z,13.30
2023-07-08T19:52:06.623Z,13.70
2023-07-08T19:54:34.599Z,14.60
2023-07-08T19:57:11.370Z,13.30
2023-07-08T19:59:46.303Z,14.00
2023-07-08T20:02:18.626Z,13.80
2023-07-08T20:04:51.562Z,13.10
2023-07-08T20:07:19.709Z,13.20
2023-07-08T20:09:53.249Z,11.60
2023-07-08T20:12:28.788Z,11.60
2023-07-08T20:14:59.226Z,11.30
2023-07-08T20:17:34.793Z,11.20
2023-07-08T20:20:02.328Z,11.00
2023-07-08T20:22:35.786Z,10.40
2023-07-08T20:25:07.497Z,9.50
2023-07-08T20:27:40.248Z,9.10
2023-07-08T20:30:42.435Z,8.60
2023-07-08T20:33:15.129Z,7.20
2023-07-08T20:35:42.886Z,7.10
2023-07-08T20:38:18.749Z,7.10
2023-07-08T20:40:53.782Z,7.60
2023-07-08T20:43:24.220Z,8.30
2023-07-08T20:46:26.210Z,8.90
2023-07-08T20:49:00.305Z,8.80
2023-07-08T20:51:33.787Z,7.30
2023-07-08T20:54:25.528Z,5.60
2023-07-08T20:56:59.730Z,4.50
2023-07-08T20:59:32.205Z,3.80
2023-07-08T21:02:27.335Z,3.60
2023-07-08T21:04:59.998Z,3.60
2023-07-08T21:07:35.335Z,4.20
2023-07-08T21:10:03.715Z,3.60
2023-07-08T21:12:37.936Z,3.60
2023-07-08T21:15:08.875Z,3.30
2023-07-08T21:17:43.374Z,3.10
2023-07-08T21:20:33.076Z,3.30
2023-07-08T21:23:40.570Z,3.20
2023-07-08T21:26:24.599Z,3.20
2023-07-08T21:29:17.700Z,2.90
2023-07-08T21:32:01.834Z,3.10
2023-07-08T21:34:38.605Z,3.00
2023-07-08T21:37:10.057Z,2.90
2023-07-08T21:39:47.858Z,2.90
2023-07-08T21:42:31.727Z,2.50
2023-07-08T21:45:04.584Z,2.70
2023-07-08T21:47:56.497Z,2.30
2023-07-08T21:50:30.656Z,2.40
2023-07-08T21:53:03.637Z,2.20
2023-07-08T21:55:45.209Z,2.30
2023-07-08T21:58:18.821Z,2.30
2023-07-08T22:00:56.360Z,2.10
2023-07-08T22:03:41.447Z,2.40
2023-07-08T22:06:27.176Z,2.30
2023-07-08T22:09:02.919Z,2.30
2023-07-08T22:11:45.254Z,2.10
2023-07-08T22:14:28.455Z,2.30
2023-07-08T22:17:10.809Z,2.40
2023-07-08T22:19:47.102Z,2.20
2023-07-08T22:22:19.501Z,2.10
2023-07-08T22:24:52.997Z,2.10
2023-07-08T22:27:34.918Z,2.30
2023-07-08T22:30:16.914Z,2.20
2023-07-08T22:33:06.252Z,2.20
2023-07-08T22:35:55.758Z,2.10
2023-07-08T22:38:37.156Z,2.20
2023-07-08T22:41:11.148Z,2.10
2023-07-08T22:43:39.634Z,2.40
2023-07-08T22:46:12.457Z,2.10
2023-07-08T22:48:57.893Z,2.00
2023-07-08T22:51:40.916Z,2.10
2023-07-08T22:56:46.177Z,2.10
2023-07-08T22:59:18.465Z,2.30
2023-07-08T23:01:48.160Z,2.30
2023-07-08T23:04:16.286Z,2.10
2023-07-08T23:06:48.913Z,2.10
2023-07-08T23:09:22.311Z,2.40
2023-07-08T23:12:06.980Z,2.20
2023-07-08T23:14:54.808Z,2.30
2023-07-08T23:17:29.798Z,2.30
2023-07-08T23:20:04.983Z,2.30
2023-07-08T23:22:40.946Z,2.60
2023-07-08T23:25:13.930Z,2.70
2023-07-08T23:27:55.745Z,2.80
2023-07-08T23:30:43.364Z,2.40
2023-07-08T23:33:17.379Z,2.60
2023-07-08T23:35:57.738Z,2.70
2023-07-08T23:38:31.230Z,2.90
2023-07-08T23:41:02.289Z,2.40
2023-07-08T23:43:30.671Z,2.60
2023-07-08T23:45:59.075Z,2.80
2023-07-08T23:48:29.205Z,2.80
2023-07-08T23:50:56.407Z,4.50
2023-07-08T23:53:26.021Z,5.20
2023-07-08T23:55:58.383Z,6.40
2023-07-08T23:58:30.981Z,8.00
